Ergebnisliste vom: 05.08.2016 - Eierweglauf2016 - 6 km

weitere Ergebnisse >>

Platz Pl.m Pl.w Stnr. Name,Vorname Verein GJ AK Akm Akw Endzeit RŘckst.
1 1   38 Schilling, Marvin SC Riesa Triathlon 97 mU20 1   0:25:44 0:00:00
2 2   59 F├Ârster, Lukas SG Gr├╝ne Eiche Gro├čthiemig 99 mU18 1   0:26:37 0:00:53
3 3   66 H├Ą├čler, Norman Gro├čenhainer Rollsportverein 97 mU20 2   0:26:40 0:00:56
4 4   49 Fischer, Christian Spoorth Chemnitz 87 mVS 1   0:26:42 0:00:58
5 5   26 R├╝hle, Nico SC Riesa Triathlon   mU18 2   0:27:03 0:01:19
6   1 14 Hoffmann, Lisa-Marie SV Elbland Coswig-Mei├čen 2 wU18   1 0:27:55 0:02:11
7 6   63 Meyer, Torsten Riesa 83 mVS 2   0:28:54 0:03:10
8   2 5 Lehmann, Birgit BSV Chemie Radebeul 64 W50   1 0:29:01 0:03:17
9 7   43 Berger, Victor TuS Coswig 1920 53 M60 1   0:29:10 0:03:26
10   3 37 Gebauer, Heleen SC Riesa Triathlon   wU18   2 0:30:16 0:04:32
11 8   65 Ro├čberg, Gerd SC Riesa 59 mVS 3   0:30:17 0:04:33
12 9   54 Scheibe, Robert Pulsen 89 mVS 4   0:30:38 0:04:54
13 10   15 Heyer, Ulrich Chemnitz 53 M60 2   0:30:42 0:04:58
14   4 56 Zange, Andrea Mei├čen 62 W50   2 0:30:46 0:05:02
15 11   22 K├╝mmel, Paul SV Motor Gro├čenhain 2 mU18 3   0:30:47 0:05:03
16 12   3 Winter, J├╝rgen LG TuS Weinb├Âhla 48 M65 1   0:30:49 0:05:05
17 13   24 R├╝hle, Frank Lichtensee 71 mVS 5   0:30:53 0:05:09
18 14   40 Liebscher, Rainer VS-Freital 49 M65 2   0:30:56 0:05:12
19 15   20 H├Âlzig, Bernd SBB Riesa 54 M60 3   0:31:00 0:05:16
20 16   21 Urban, Gerd Coswig 65 mVS 6   0:31:05 0:05:21
21 17   1 Kr├╝ger, Holger Mei├čen 43 M70 1   0:31:17 0:05:33
22 18   47 Schliwa, Alexander Team Tempus   mU18 4   0:31:39 0:05:55
23   5 29 Prasse, Emily SV Chemie N├╝nchritz 2 wU18   3 0:31:48 0:06:04
24   6 7 Golbs, Marlene Mei├čen 2 wU18   4 0:32:22 0:06:38
25 19   13 Hoffmann, Hagen Naunhof 68 mVS 7   0:33:05 0:07:21
26 20   35 Schmidt, Daniel Real Egal Radeburg 80 mVS 8   0:33:32 0:07:48
27   7 34 Spauschus, Sarah N├╝nchritz 92 wVS   1 0:33:43 0:07:59
28   8 30 Blaas, Aline SV Chemie N├╝nchritz 97 wU20   1 0:34:34 0:08:50
29 21   28 Schubert, Lothar WSV Riesa 53 M60 4   0:34:41 0:08:57
30   9 53 Lucke, Carolin Leipzig 97 wU20   2 0:34:56 0:09:12
31 22   16 Fricke, Ulrich Weinb├Âhla 43 M70 2   0:35:05 0:09:21
32   10 50 Berge, Anett Riesa 64 W50   3 0:35:14 0:09:30
33 23   33 Schwarzer, Harald Katzengebirgsl├Ąufer 61 mVS 9   0:35:15 0:09:31
34 24   19 Senf, Dietmar Gro├čbothen 51 M65 3   0:35:18 0:09:34
35 25   57 Eisemuth, Sandro SV Lampertswalde 81 mVS 10   0:35:30 0:09:46
36   11 11 Fleck, Ina Stauchitz 65 W50   4 0:35:39 0:09:55
37   12 52 Sch├Ânbrunn, Romy SV Eintracht Ortrand 97 wU20   3 0:35:46 0:10:02
38   13 25 R├╝hle, Ivonne Lichtensee 71 wVS   2 0:35:51 0:10:07
39   14 64 Mi├čbach, Marita   60 W55   1 0:36:02 0:10:18
40   15 36 Schw├Ąbe, Svea Traktor Trogen 91 wVS   3 0:36:15 0:10:31
41   16 48 Putzmann, Peggy Chemnitz 95 wVS   4 0:37:01 0:11:17
42   17 27 Steinicke, Iris Terpitz 64 W50   5 0:37:34 0:11:50
43 26   18 H├Ąhnel, Marvin SV Chemie N├╝nchritz 2 mU18 5   0:37:44 0:12:00
44 27   12 Klengel, Frank Naunhof 67 mVS 11   0:37:47 0:12:03
45   18 61 Gedig, Anke SC Riesa 70 wVS   5 0:37:53 0:12:09
46   19 6 Mantey, Danuta Grimma 50 W65   1 0:38:36 0:12:52
47   20 62 Franke, Manuela Riesa 71 wVS   6 0:38:45 0:13:01
48 28   17 Mauke, Holger Schmiedewalde 58 mVS 12   0:39:59 0:14:15
49   21 44 Berger, Renate TuS Coswig 1920 52 W60   1 0:40:20 0:14:36
50 29   23 Lindig, Volker Waldlauf Coswig 41 M75 1   0:41:42 0:15:58
51   22 67 H├Ąu├čler, Maren Gro├čenhainer Rollsportverein 98 wU20   4 0:41:54 0:16:10
52   23 41 Doege, Angela Ren(n)tiere Miltitz 57 W55   2 0:42:14 0:16:30
53 30   39 Goedderz, Klaus Riesa 56 M60 5   0:42:28 0:16:44
54 31   4 Heinrich, Dietmar SV Elbland Coswig-Mei├čen 47 M65 4   0:42:55 0:17:11
55   24 46 Lindner, Elvira SV Elbland Coswig Mei├čen 52 W60   2 0:43:56 0:18:12
56   25 32 Schwarzer, Manuela Katzengebirgsl├Ąufer 61 W55   3 0:44:08 0:18:24
57 32   10 K├╝hn, Gerald SC Riesa 44 M70 3   0:45:10 0:19:26
58 33   8 Malsch, Bernhard Mei├čen 37 M75 2   0:45:15 0:19:31
59   26 31 Harz, Birgit Citylauf-Verein Dresden 44 W70   1 0:45:19 0:19:35
60 34   45 Schildt, J├╝rgen TuS Coswig 1920 37 M75 3   0:46:23 0:20:39
61   27 55 Czayka, Korinna SV Gr├╝n-Wei├č Blattersleben 72 wVS   7 0:46:38 0:20:54
62   28 58 Thiele, Frankziska Dresden 81 wVS   8 0:46:44 0:21:00
63 35   42 Doege, Detlef Ren(n)tiere Miltitz 57 mVS 13   0:50:43 0:24:59
64   29 51 Beger, Angela Coswig 79 wVS   9 0:51:01 0:25:17
65 36   2 Wagner, Harald SG Lok Hainsberg 34 M80 1   0:51:08 0:25:24
66   30 60 Otremba, Gerlinde SC Riesa 55 W60   3 0:55:02 0:29:18
(c) 1990-2012 Blue Wonder Sport Promotion - Andreas Burow - Zeitnahme & Auswertung - www.Triathlon-Service.de